EmailTwitter


Surface observations / France / LFBO (07630)

Regions: Quebec | Canada | USA | Europe | France | UK | Elsewhere
Station
Display
Info & Location for LFBO (07630) | Help decoding METAR

Weather Conditions observed on 2017/10/21 at 08:00 UTC at TOULOUSE/BLAGNAC, FR (LFBO)

Sky conditions: partly cloudy.

Temperature: 17.0 Celsius.

Dewpoint: 13.0 Celsius.

Relative Humidity: 77%

Winds: West-southwest at 15 km/h or 8 knots.

Mean Sea level Pressure: 102.20 kilopascals.

Horizontal visibility: 6.21 statute miles or 9.94 kilometers.

Height of the Ceiling: 2621 metres ( 8600 feet ).

Coded METAR:

LFBO 210800Z AUTO 25008KT 9999 FEW023 SCT045 BKN086 17/13 Q1022 TEMPO 4000 BR

BKN006=